Date,TemperatureHighF,TemperatureAvgF,TemperatureLowF,DewpointHighF,DewpointAvgF,DewpointLowF,HumidityHigh,HumidityAvg,HumidityLow,PressureMaxIn,PressureMinIn,WindSpeedMaxMPH,WindSpeedAvgMPH,GustSpeedMaxMPH,PrecipitationSumIn
2013-7-10,87.8,81.4,80.6,72.9,66.3,-99.9,77,65,59,29.95,29.90,8,-31,0,0.00
2013-7-11,87.4,80.5,72.1,74.4,69.1,64.7,87,69,50,30.00,29.90,5,1,0,0.00
2013-7-12,81.3,73.9,67.1,71.4,66.5,62.1,99,79,62,30.10,29.99,10,2,0,0.55
2013-7-13,81.9,71.0,66.2,75.1,69.8,65.9,99,96,80,30.22,30.11,6,2,0,0.08
2013-7-14,93.4,83.1,72.1,78.0,73.6,71.3,99,76,52,30.23,30.09,6,1,0,0.00
2013-7-15,79.3,79.3,79.3,73.4,73.4,73.4,82,82,82,30.10,30.08,0,0,0,0.00
2013-7-16,96.3,88.1,71.2,73.0,69.4,66.5,94,56,40,30.04,29.97,7,2,0,0.00
2013-7-17,98.4,90.7,80.2,74.5,70.9,64.6,76,54,36,30.02,29.87,4,1,0,0.00
2013-7-18,100.4,91.9,75.6,77.6,74.4,71.6,92,59,41,29.87,29.78,4,2,0,0.00
2013-7-19,99.9,93.7,80.2,79.0,75.4,73.8,83,56,47,29.78,29.62,8,4,0,0.00
2013-7-20,95.4,88.3,79.9,75.5,71.4,67.8,77,58,48,29.71,29.59,10,3,0,0.00
2013-7-21,88.7,82.2,72.5,72.6,66.0,62.5,98,60,46,29.83,29.75,5,2,0,0.07
2013-7-22,87.1,79.3,72.3,77.2,72.7,64.1,99,83,49,29.85,29.72,6,2,0,2.35
2013-7-23,89.8,80.9,72.5,76.3,73.7,70.9,99,81,57,29.58,29.48,7,2,0,0.04
2013-7-24,73.6,63.4,67.8,73.3,44.8,-99.9,99,68,57,29.88,29.56,5,-110,0,0.00
2013-7-25,72.5,66.6,62.4,59.3,54.6,48.9,77,65,60,30.01,29.89,5,2,0,0.00
2013-7-26,84.9,75.7,66.0,64.5,61.6,60.0,85,63,45,29.97,29.92,5,1,0,0.00
2013-7-27,84.9,80.7,64.9,65.9,64.0,60.5,90,58,49,29.99,29.89,5,2,0,0.00
2013-7-28,82.8,76.5,66.9,70.9,68.3,64.9,99,77,61,29.92,29.86,6,1,0,0.37
2013-7-29,86.5,79.6,67.5,71.2,63.9,54.6,99,61,39,30.02,29.90,7,2,0,0.00
2013-7-30,83.7,77.0,57.6,61.3,58.9,55.5,98,56,40,30.10,30.03,7,2,0,0.00
2013-7-31,83.5,78.5,69.6,64.8,62.6,61.2,81,59,48,30.08,29.96,5,1,0,0.00
2013-8-1,78.4,69.5,66.6,68.5,67.2,64.3,99,93,68,29.90,29.77,4,0,0,0.92
2013-8-2,86.4,81.4,73.0,68.4,64.8,60.2,84,58,45,29.83,29.79,8,3,0,0.00
2013-8-4,80.6,74.8,68.2,58.0,54.7,52.4,58,50,44,29.89,29.79,5,2,0,0.00
2013-8-5,82.8,73.3,56.8,57.5,52.4,47.9,87,51,32,29.99,29.92,5,1,0,0.00
2013-8-6,84.9,77.7,66.7,60.9,57.3,53.9,78,51,39,30.05,30.00,6,2,0,0.00
2013-8-7,81.0,73.1,63.5,68.7,64.8,60.7,92,76,59,30.07,29.98,6,2,0,0.00
2013-8-8,86.9,77.7,70.5,76.1,73.2,70.2,99,87,65,29.98,29.93,5,1,0,1.41
2013-8-9,87.3,78.6,73.4,77.6,75.5,73.1,99,91,69,29.83,29.72,10,2,0,0.72
2013-8-10,85.6,78.7,64.9,69.8,63.2,58.8,94,61,44,29.98,29.88,5,2,0,0.00
2013-8-11,83.1,76.5,56.3,61.6,58.2,55.2,99,55,44,30.06,29.95,5,2,0,0.00
2013-8-12,82.9,77.1,68.0,69.6,64.1,56.8,93,66,43,29.95,29.84,3,1,0,0.11
2013-8-13,79.9,74.5,68.0,72.1,69.4,67.6,99,85,67,29.75,29.62,3,1,0,0.69
2013-8-14,79.0,72.8,63.3,69.6,53.5,49.0,73,51,43,29.92,29.62,7,2,0,0.00
2013-8-15,82.4,75.1,58.5,57.3,53.4,48.8,92,48,35,30.07,29.99,6,2,0,0.00
2013-8-16,83.5,77.3,59.4,60.1,54.9,50.9,91,48,34,30.11,30.04,6,2,0,0.00
2013-8-17,85.6,79.6,56.8,62.2,58.2,55.1,99,50,38,30.20,30.15,4,2,0,0.00
2013-8-18,78.3,71.9,63.3,65.5,63.1,56.8,92,75,56,30.18,30.05,3,0,0,0.00
2013-8-19,81.9,75.3,59.7,66.4,63.9,59.4,99,69,53,30.04,29.95,5,2,0,0.00
2013-8-20,91.6,83.1,67.5,69.8,66.6,63.6,92,60,41,30.04,29.98,5,1,0,0.00
2013-9-3,83.5,78.1,68.0,73.0,64.0,58.7,99,64,49,29.75,29.67,9,1,0,0.00
2013-9-4,84.9,75.2,58.1,61.8,59.2,54.9,99,60,41,29.92,29.84,5,2,0,0.00
2013-9-5,81.7,70.9,58.5,62.7,56.0,46.8,99,63,36,30.02,29.86,6,1,0,0.00
2013-9-6,76.1,66.8,51.4,49.3,45.3,41.8,80,47,32,30.18,30.06,6,2,0,0.00
2013-9-7,82.9,71.9,54.9,57.8,52.3,48.1,82,53,31,30.07,29.82,5,1,0,0.00
2013-9-8,83.3,74.4,59.4,66.4,56.7,46.6,87,56,31,29.99,29.74,6,2,0,0.00
2013-9-9,75.2,68.5,58.8,59.7,53.4,46.6,82,60,41,30.17,29.99,4,2,0,0.00
2013-9-10,87.8,80.0,66.9,75.1,71.5,60.0,97,76,65,30.07,29.95,7,3,0,0.00
2013-9-11,97.3,89.0,73.6,78.2,76.2,71.6,99,67,54,30.03,29.88,5,2,0,0.00
2013-9-12,90.3,82.5,71.1,76.7,74.2,70.8,99,77,62,29.84,29.60,5,2,0,0.07
2013-9-13,79.5,70.5,59.2,68.2,59.1,50.5,99,68,53,29.76,29.57,4,2,0,0.00
2013-9-14,70.7,66.5,58.8,50.7,49.4,47.1,65,54,48,29.92,29.88,6,3,0,0.00
2013-9-15,75.7,65.3,47.8,53.8,49.4,45.9,98,59,38,30.14,30.00,5,2,0,0.00
2013-9-16,55.0,55.0,55.0,53.6,53.6,53.6,95,95,95,30.02,30.01,0,0,0,0.00
2013-9-17,70.2,61.0,50.4,48.0,42.5,38.7,91,52,37,30.36,30.25,7,2,0,0.00
2013-9-18,76.5,63.9,49.8,52.7,47.8,44.1,95,61,35,30.27,30.09,4,1,0,0.00
2013-9-19,79.3,68.6,52.5,56.2,53.3,50.4,97,61,39,30.10,29.97,4,1,0,0.00
2013-9-20,80.1,77.4,74.1,61.3,61.0,60.6,63,57,52,29.99,29.96,5,2,0,0.00
2013-9-21,77.7,70.0,51.8,68.8,64.3,51.5,99,83,61,29.88,29.58,8,3,0,0.27
2013-9-22,70.7,65.2,56.8,60.3,51.2,45.6,99,62,45,29.77,29.61,6,2,0,0.00
2013-10-5,77.2,71.1,56.8,67.7,65.5,46.0,99,83,67,30.01,29.94,4,1,0,0.00
2013-10-6,67.3,65.8,64.8,67.0,65.5,64.5,99,99,99,30.01,29.96,4,1,0,0.02
2013-10-7,75.2,69.0,59.5,72.7,67.9,59.3,99,97,88,29.82,29.64,8,2,0,0.49
2013-10-8,69.6,60.7,47.5,53.7,48.7,44.6,99,68,43,30.24,30.10,5,1,0,0.01
2013-10-9,63.3,56.2,43.5,50.2,47.2,43.0,98,73,53,30.33,30.22,5,2,0,0.00
2013-10-10,63.7,59.0,51.6,55.2,53.1,48.5,92,81,72,30.16,30.02,5,2,0,0.00
2013-10-11,68.7,65.9,58.8,61.8,59.1,54.6,87,79,72,29.98,29.93,5,2,0,0.00
2013-10-12,75.4,67.0,55.4,58.9,51.0,35.9,85,60,24,30.21,30.04,8,3,0,0.00
2013-10-13,66.6,58.6,50.0,54.9,51.6,49.7,99,79,60,30.31,30.20,8,2,0,0.00
2013-10-14,70.0,60.8,50.9,53.3,51.1,49.2,99,72,50,30.28,30.15,3,1,0,0.00
2013-10-15,74.7,65.8,52.5,56.7,54.9,52.0,98,69,49,30.15,30.03,5,2,0,0.00
2013-10-16,70.9,63.0,51.4,59.4,57.1,51.2,99,82,67,30.00,29.85,3,1,0,0.00
2013-10-17,74.5,66.0,60.8,64.0,62.2,60.5,99,89,64,29.81,29.63,5,1,0,0.01
2013-10-18,71.6,66.1,54.1,48.0,45.7,43.7,73,49,41,29.84,29.76,6,2,0,0.00
2013-10-19,59.5,55.2,53.8,52.3,47.3,45.7,78,75,74,29.84,29.69,0,0,0,0.00
2013-10-20,58.3,58.3,58.3,51.1,51.1,51.1,77,77,77,29.69,29.69,2,2,0,0.00
2013-10-22,63.1,52.0,46.6,50.1,41.6,-99.9,96,77,62,29.69,29.65,5,-47,0,0.00
2013-10-23,46.6,45.5,42.8,45.2,42.7,37.6,95,90,79,29.70,29.65,0,0,0,0.00
2013-10-24,57.0,49.8,36.7,36.3,31.8,27.4,93,52,37,29.85,29.76,6,3,0,0.00
2013-10-25,57.7,48.6,35.6,35.8,33.0,29.3,90,57,36,30.13,30.01,5,2,0,0.00
2013-10-26,57.2,50.6,35.2,35.1,32.3,30.2,92,51,37,30.09,29.81,11,3,0,0.00
2013-10-27,62.1,50.8,36.9,36.0,34.2,30.9,92,56,35,30.03,29.84,7,2,0,0.00
2013-10-28,64.0,53.6,34.9,38.7,36.5,34.4,98,55,36,30.21,30.07,6,1,0,0.00
2013-10-29,57.2,51.0,41.7,35.7,33.9,32.0,75,53,42,30.34,30.26,4,1,0,0.00
2013-10-30,42.3,42.3,42.3,34.2,34.2,34.2,73,73,73,30.29,30.29,0,0,0,0.00
2013-10-31,63.0,57.3,42.3,59.6,55.4,34.2,99,94,73,30.29,29.74,3,0,0,0.00
2013-11-1,72.5,63.6,51.1,59.3,54.3,50.8,99,74,53,29.58,29.45,8,2,0,0.00
2013-11-2,70.2,56.9,45.9,51.7,48.7,45.6,99,77,46,29.61,29.52,3,1,0,0.00
2013-11-3,52.2,44.4,33.8,39.6,32.4,23.6,83,63,53,30.29,29.87,4,2,0,0.00
2013-11-4,47.3,41.5,27.3,27.4,19.4,17.9,83,42,31,30.56,30.50,6,3,0,0.00
2013-11-5,52.0,51.4,31.8,38.5,38.2,27.3,83,61,60,30.57,30.54,4,4,0,0.00
2013-11-6,61.9,54.7,51.8,49.9,48.4,46.2,90,80,58,30.28,30.03,3,1,0,0.00
2013-11-7,61.9,53.0,40.6,59.0,50.1,34.0,99,90,72,30.03,29.65,6,1,0,0.15
2013-11-8,48.7,42.1,34.3,29.1,27.4,26.3,73,56,44,30.10,29.95,5,1,0,0.00
2013-11-9,51.8,45.6,28.4,31.5,29.2,26.5,99,54,39,30.19,29.99,5,2,0,0.00
2013-11-10,62.4,50.1,36.9,42.7,35.6,28.9,91,59,36,29.89,29.71,12,4,0,0.00
2013-11-11,54.3,49.7,39.0,34.1,30.9,27.1,63,48,41,30.11,29.90,6,3,0,0.00
2013-11-12,50.7,36.4,28.9,33.7,21.9,16.8,79,56,43,30.18,29.99,7,2,0,0.01
2013-11-13,43.7,34.9,24.8,19.4,15.8,13.6,72,47,29,30.28,30.21,7,2,0,0.00
2013-11-14,53.8,43.4,27.3,22.3,19.6,17.0,81,42,25,30.10,30.05,5,2,0,0.00
2013-11-15,59.5,46.5,25.0,29.9,26.8,22.6,94,50,25,30.16,30.05,4,1,0,0.00
2013-11-16,51.8,44.3,39.9,47.1,42.9,39.7,99,95,75,30.21,30.18,2,0,0,0.00
2013-11-17,58.6,49.2,40.8,57.5,48.4,40.6,99,97,89,30.19,29.83,2,0,0,0.00
2013-11-18,67.6,59.0,49.6,39.1,33.0,29.1,51,38,32,29.67,29.51,15,4,0,0.00
2013-11-19,49.3,49.3,49.3,32.4,32.4,32.4,52,52,52,29.68,29.68,2,2,0,0.00
2013-11-20,49.3,39.3,25.5,32.4,18.0,11.3,74,45,25,30.49,29.68,5,1,0,0.00
2013-11-21,53.1,45.0,24.1,41.0,33.3,20.0,88,64,50,30.53,30.34,4,1,0,0.00
2013-11-22,59.9,52.7,45.3,52.0,48.9,45.1,99,87,71,30.12,29.83,4,1,0,0.05
2013-11-23,48.9,43.1,32.5,31.5,24.1,19.8,94,49,34,29.95,29.80,6,3,0,0.00
2013-11-24,32.7,26.5,21.6,10.1,6.0,0.9,52,42,27,30.26,30.02,14,4,0,0.01
2013-11-25,38.5,31.7,15.6,15.4,13.6,5.9,81,47,36,30.39,30.25,6,3,0,0.00
2013-11-26,40.5,36.6,33.8,36.6,28.0,19.2,99,74,44,30.23,29.91,3,1,0,0.44
2013-11-27,58.1,41.8,34.5,57.8,40.5,25.4,99,95,69,29.55,29.24,8,3,0,0.43
2013-12-1,51.3,42.2,28.2,35.2,33.0,27.5,99,71,50,30.15,29.94,4,1,0,0.00
2013-12-2,48.7,42.1,34.7,40.1,36.6,32.6,92,81,68,29.89,29.80,3,0,0,0.00
2013-12-3,56.8,41.8,29.8,38.5,34.9,29.6,99,80,50,29.92,29.77,7,1,0,0.00
2013-12-5,52.9,49.7,46.0,52.6,49.5,45.8,99,99,99,30.00,29.89,0,0,0,0.02
2013-12-6,49.3,46.7,44.8,49.0,46.3,44.2,99,99,96,29.95,29.89,4,2,0,0.13
2013-12-7,34.0,31.5,30.0,23.9,20.1,18.2,71,62,59,30.40,30.28,2,1,0,0.00
2013-12-9,37.8,35.0,31.8,37.5,34.8,31.6,99,99,99,29.92,29.88,7,1,0,0.01
2013-12-10,36.0,30.9,23.9,34.2,29.7,21.7,99,95,89,30.02,29.78,4,1,0,0.01
2013-12-11,36.7,27.1,19.4,21.4,18.9,17.1,93,72,52,30.22,30.03,9,2,0,0.08
2013-12-12,31.1,24.4,18.5,17.4,9.7,7.6,74,54,40,30.27,30.10,10,3,0,0.01
2013-12-13,36.5,35.0,27.9,17.2,16.3,12.5,52,46,45,30.08,30.03,8,5,0,0.00
2013-12-14,36.1,24.7,21.9,20.5,19.7,16.9,94,84,45,30.37,30.04,6,3,0,0.00
2013-12-16,32.7,24.4,15.3,14.7,9.5,-99.9,93,58,44,30.02,29.91,7,-22,0,0.00
2013-12-17,26.4,21.9,17.8,25.4,20.9,17.5,99,96,93,29.97,29.75,3,1,0,0.00
2013-12-18,42.1,30.5,14.9,26.3,22.0,14.7,99,72,52,30.00,29.83,5,1,0,0.26
2013-12-19,46.2,37.2,20.8,30.6,27.7,20.1,97,70,50,29.99,29.86,5,2,0,0.18
2013-12-20,51.4,42.7,32.9,35.0,34.0,30.0,92,73,52,29.92,29.82,5,1,0,0.01
2013-12-21,61.2,52.2,39.9,50.0,46.8,39.7,99,83,65,29.86,29.77,7,2,0,0.00
2013-12-22,68.2,58.6,45.9,64.1,55.8,45.1,99,91,77,29.88,29.70,7,2,0,0.00
2013-12-23,58.8,51.9,42.3,58.5,51.4,39.8,99,98,91,30.06,29.84,4,1,0,1.15
2013-12-24,42.8,35.1,26.1,30.6,23.8,15.2,99,65,48,30.22,30.02,8,2,0,0.00
2013-12-25,25.9,25.4,22.8,15.4,14.6,12.8,67,63,62,30.38,30.21,3,2,0,0.00
2013-12-26,39.4,32.2,26.4,29.0,24.3,20.7,85,73,64,30.19,30.03,6,2,0,0.00
2013-12-27,41.5,33.3,20.3,25.2,23.5,20.1,99,69,48,30.22,30.11,10,2,0,0.00
2013-12-28,55.0,35.9,21.7,29.9,26.5,21.5,99,74,37,30.12,29.89,10,1,0,0.00
2013-12-29,42.6,39.3,34.3,40.6,37.9,32.0,99,95,73,29.84,29.29,4,1,0,1.62
2013-12-30,38.7,38.7,38.7,38.4,38.4,38.4,99,99,99,29.46,29.44,1,1,0,0.00
2013-12-31,31.3,26.6,17.4,26.0,15.4,10.8,88,63,51,30.03,29.93,7,3,0,0.00
2014-1-1,33.3,29.5,27.3,20.6,19.8,18.8,75,67,56,30.21,30.17,0,0,0,0.00
2014-1-2,25.2,21.3,13.3,21.5,18.5,12.1,97,89,82,29.99,29.58,7,3,0,0.00